sensor_id;sensor_type;location;lat;lon;timestamp;pressure;altitude;pressure_sealevel;temperature;humidity
65997;BME280;52765;52.258;21.052;2023-02-16T00:01:56;101553.47;;;1.63;100.00
65997;BME280;52765;52.258;21.052;2023-02-16T00:04:31;101559.78;;;1.61;100.00
65997;BME280;52765;52.258;21.052;2023-02-16T00:06:57;101552.06;;;1.55;100.00
65997;BME280;52765;52.258;21.052;2023-02-16T00:09:23;101555.47;;;1.58;100.00
65997;BME280;52765;52.258;21.052;2023-02-16T00:11:51;101543.75;;;1.43;100.00
65997;BME280;52765;52.258;21.052;2023-02-16T00:14:37;101548.31;;;1.40;100.00
65997;BME280;52765;52.258;21.052;2023-02-16T00:17:04;101546.66;;;1.37;100.00
65997;BME280;52765;52.258;21.052;2023-02-16T00:19:33;101544.06;;;1.36;100.00
65997;BME280;52765;52.258;21.052;2023-02-16T00:22:00;101535.19;;;1.37;100.00
65997;BME280;52765;52.258;21.052;2023-02-16T00:24:27;101527.44;;;1.32;100.00
65997;BME280;52765;52.258;21.052;2023-02-16T00:26:53;101527.63;;;1.27;100.00
65997;BME280;52765;52.258;21.052;2023-02-16T00:29:28;101518.00;;;1.25;100.00
65997;BME280;52765;52.258;21.052;2023-02-16T00:31:56;101509.25;;;1.23;100.00
65997;BME280;52765;52.258;21.052;2023-02-16T00:34:32;101513.75;;;1.21;100.00
65997;BME280;52765;52.258;21.052;2023-02-16T00:37:00;101510.47;;;1.16;100.00
65997;BME280;52765;52.258;21.052;2023-02-16T00:39:26;101506.34;;;1.08;100.00
65997;BME280;52765;52.258;21.052;2023-02-16T00:41:54;101508.94;;;1.10;100.00
65997;BME280;52765;52.258;21.052;2023-02-16T00:44:24;101503.53;;;1.11;100.00
65997;BME280;52765;52.258;21.052;2023-02-16T00:46:51;101498.22;;;1.11;100.00
65997;BME280;52765;52.258;21.052;2023-02-16T00:49:18;101494.47;;;1.17;100.00
65997;BME280;52765;52.258;21.052;2023-02-16T00:51:44;101497.06;;;1.19;100.00
65997;BME280;52765;52.258;21.052;2023-02-16T00:54:09;101492.59;;;1.19;100.00
65997;BME280;52765;52.258;21.052;2023-02-16T00:56:36;101490.22;;;1.13;100.00
65997;BME280;52765;52.258;21.052;2023-02-16T00:59:03;101490.13;;;1.15;100.00
65997;BME280;52765;52.258;21.052;2023-02-16T01:01:31;101481.25;;;1.16;100.00
65997;BME280;52765;52.258;21.052;2023-02-16T01:04:02;101483.00;;;1.17;100.00
65997;BME280;52765;52.258;21.052;2023-02-16T01:06:28;101474.81;;;1.21;100.00
65997;BME280;52765;52.258;21.052;2023-02-16T01:09:22;101478.34;;;1.22;100.00
65997;BME280;52765;52.258;21.052;2023-02-16T01:12:14;101478.16;;;1.25;100.00
65997;BME280;52765;52.258;21.052;2023-02-16T01:14:41;101482.50;;;1.27;100.00
65997;BME280;52765;52.258;21.052;2023-02-16T01:17:09;101473.53;;;1.30;100.00
65997;BME280;52765;52.258;21.052;2023-02-16T01:19:35;101465.00;;;1.23;100.00
65997;BME280;52765;52.258;21.052;2023-02-16T01:22:01;101472.72;;;1.28;100.00
65997;BME280;52765;52.258;21.052;2023-02-16T01:24:26;101470.06;;;1.28;100.00
65997;BME280;52765;52.258;21.052;2023-02-16T01:26:52;101470.06;;;1.28;100.00
65997;BME280;52765;52.258;21.052;2023-02-16T01:29:19;101474.47;;;1.29;100.00
65997;BME280;52765;52.258;21.052;2023-02-16T01:31:46;101462.19;;;1.26;100.00
65997;BME280;52765;52.258;21.052;2023-02-16T01:34:12;101460.47;;;1.25;100.00
65997;BME280;52765;52.258;21.052;2023-02-16T01:36:44;101458.59;;;1.27;100.00
65997;BME280;52765;52.258;21.052;2023-02-16T01:39:15;101452.38;;;1.28;100.00
65997;BME280;52765;52.258;21.052;2023-02-16T01:42:05;101447.84;;;1.31;100.00
65997;BME280;52765;52.258;21.052;2023-02-16T01:44:40;101440.81;;;1.29;100.00
65997;BME280;52765;52.258;21.052;2023-02-16T01:49:48;101449.66;;;1.30;100.00
65997;BME280;52765;52.258;21.052;2023-02-16T01:54:51;101438.16;;;1.29;100.00
65997;BME280;52765;52.258;21.052;2023-02-16T02:00:30;101431.84;;;1.32;100.00
65997;BME280;52765;52.258;21.052;2023-02-16T02:03:00;101431.13;;;1.28;100.00
65997;BME280;52765;52.258;21.052;2023-02-16T02:05:47;101430.25;;;1.28;100.00
65997;BME280;52765;52.258;21.052;2023-02-16T02:08:44;101433.03;;;1.25;100.00
65997;BME280;52765;52.258;21.052;2023-02-16T02:11:40;101421.56;;;1.24;100.00
65997;BME280;52765;52.258;21.052;2023-02-16T02:14:26;101429.59;;;1.23;100.00
65997;BME280;52765;52.258;21.052;2023-02-16T02:17:03;101420.72;;;1.24;100.00
65997;BME280;52765;52.258;21.052;2023-02-16T02:19:35;101426.94;;;1.23;100.00
65997;BME280;52765;52.258;21.052;2023-02-16T02:22:25;101422.72;;;1.19;100.00
65997;BME280;52765;52.258;21.052;2023-02-16T02:28:42;101412.38;;;1.13;100.00
65997;BME280;52765;52.258;21.052;2023-02-16T02:33:51;101407.50;;;1.03;100.00
65997;BME280;52765;52.258;21.052;2023-02-16T02:36:36;101400.41;;;1.04;100.00
65997;BME280;52765;52.258;21.052;2023-02-16T02:39:34;101409.28;;;1.03;100.00
65997;BME280;52765;52.258;21.052;2023-02-16T02:42:09;101398.72;;;1.01;100.00
65997;BME280;52765;52.258;21.052;2023-02-16T02:44:48;101386.69;;;0.94;100.00
65997;BME280;52765;52.258;21.052;2023-02-16T02:47:15;101388.41;;;0.95;100.00
65997;BME280;52765;52.258;21.052;2023-02-16T02:49:48;101397.03;;;1.00;100.00
65997;BME280;52765;52.258;21.052;2023-02-16T02:52:14;101400.59;;;0.99;100.00
65997;BME280;52765;52.258;21.052;2023-02-16T02:54:40;101388.34;;;0.97;100.00
65997;BME280;52765;52.258;21.052;2023-02-16T03:00:25;101385.59;;;0.98;100.00
65997;BME280;52765;52.258;21.052;2023-02-16T03:03:24;101371.34;;;1.01;100.00
65997;BME280;52765;52.258;21.052;2023-02-16T03:06:04;101373.09;;;1.02;100.00
65997;BME280;52765;52.258;21.052;2023-02-16T03:08:35;101359.94;;;0.99;100.00
65997;BME280;52765;52.258;21.052;2023-02-16T03:11:08;101356.66;;;0.94;100.00
65997;BME280;52765;52.258;21.052;2023-02-16T03:14:02;101355.75;;;0.93;100.00
65997;BME280;52765;52.258;21.052;2023-02-16T03:16:34;101350.63;;;0.90;100.00
65997;BME280;52765;52.258;21.052;2023-02-16T03:19:03;101353.47;;;0.85;100.00
65997;BME280;52765;52.258;21.052;2023-02-16T03:21:49;101348.91;;;0.89;100.00
65997;BME280;52765;52.258;21.052;2023-02-16T03:24:34;101345.47;;;0.87;100.00
65997;BME280;52765;52.258;21.052;2023-02-16T03:27:23;101346.97;;;0.92;100.00
65997;BME280;52765;52.258;21.052;2023-02-16T03:30:09;101343.53;;;0.90;100.00
65997;BME280;52765;52.258;21.052;2023-02-16T03:32:36;101346.97;;;0.92;100.00
65997;BME280;52765;52.258;21.052;2023-02-16T03:35:02;101338.94;;;0.94;100.00
65997;BME280;52765;52.258;21.052;2023-02-16T03:37:31;101333.97;;;0.86;100.00
65997;BME280;52765;52.258;21.052;2023-02-16T03:39:56;101339.06;;;0.91;100.00
65997;BME280;52765;52.258;21.052;2023-02-16T03:42:51;101335.44;;;0.94;100.00
65997;BME280;52765;52.258;21.052;2023-02-16T03:45:18;101340.81;;;0.92;100.00
65997;BME280;52765;52.258;21.052;2023-02-16T03:47:43;101336.41;;;0.91;100.00
65997;BME280;52765;52.258;21.052;2023-02-16T03:50:09;101329.47;;;0.88;100.00
65997;BME280;52765;52.258;21.052;2023-02-16T03:52:35;101332.13;;;0.88;100.00
65997;BME280;52765;52.258;21.052;2023-02-16T03:55:00;101321.50;;;0.88;100.00
65997;BME280;52765;52.258;21.052;2023-02-16T03:57:25;101306.59;;;0.86;100.00
65997;BME280;52765;52.258;21.052;2023-02-16T03:59:51;101307.50;;;0.85;100.00
65997;BME280;52765;52.258;21.052;2023-02-16T04:02:20;101308.53;;;0.82;100.00
65997;BME280;52765;52.258;21.052;2023-02-16T04:04:46;101304.00;;;0.84;100.00
65997;BME280;52765;52.258;21.052;2023-02-16T04:07:11;101303.34;;;0.79;100.00
65997;BME280;52765;52.258;21.052;2023-02-16T04:09:40;101293.91;;;0.73;100.00
65997;BME280;52765;52.258;21.052;2023-02-16T04:12:05;101306.84;;;0.80;100.00
65997;BME280;52765;52.258;21.052;2023-02-16T04:14:49;101297.34;;;0.76;100.00
65997;BME280;52765;52.258;21.052;2023-02-16T04:17:15;101299.03;;;0.77;100.00
65997;BME280;52765;52.258;21.052;2023-02-16T04:19:41;101286.88;;;0.72;100.00
65997;BME280;52765;52.258;21.052;2023-02-16T04:22:06;101290.38;;;0.73;100.00
65997;BME280;52765;52.258;21.052;2023-02-16T04:24:32;101297.41;;;0.74;100.00
65997;BME280;52765;52.258;21.052;2023-02-16T04:26:57;101286.16;;;0.69;100.00
65997;BME280;52765;52.258;21.052;2023-02-16T04:29:23;101284.41;;;0.68;100.00
65997;BME280;52765;52.258;21.052;2023-02-16T04:31:48;101292.38;;;0.68;100.00
65997;BME280;52765;52.258;21.052;2023-02-16T04:34:17;101295.03;;;0.68;100.00
65997;BME280;52765;52.258;21.052;2023-02-16T04:36:42;101297.47;;;0.72;100.00
65997;BME280;52765;52.258;21.052;2023-02-16T04:39:07;101279.75;;;0.73;100.00
65997;BME280;52765;52.258;21.052;2023-02-16T04:41:33;101278.78;;;0.76;100.00
65997;BME280;52765;52.258;21.052;2023-02-16T04:43:58;101273.53;;;0.74;100.00
65997;BME280;52765;52.258;21.052;2023-02-16T04:46:24;101285.88;;;0.75;100.00
65997;BME280;52765;52.258;21.052;2023-02-16T04:48:57;101290.22;;;0.76;100.00
65997;BME280;52765;52.258;21.052;2023-02-16T04:51:25;101296.47;;;0.75;100.00
65997;BME280;52765;52.258;21.052;2023-02-16T04:53:50;101286.00;;;0.72;100.00
65997;BME280;52765;52.258;21.052;2023-02-16T04:56:48;101274.00;;;0.63;100.00
65997;BME280;52765;52.258;21.052;2023-02-16T04:59:16;101290.50;;;0.70;100.00
65997;BME280;52765;52.258;21.052;2023-02-16T05:01:41;101287.78;;;0.71;100.00
65997;BME280;52765;52.258;21.052;2023-02-16T05:04:07;101293.00;;;0.73;100.00
65997;BME280;52765;52.258;21.052;2023-02-16T05:06:34;101285.19;;;0.70;100.00
65997;BME280;52765;52.258;21.052;2023-02-16T05:09:00;101283.56;;;0.67;100.00
65997;BME280;52765;52.258;21.052;2023-02-16T05:11:28;101278.19;;;0.69;100.00
65997;BME280;52765;52.258;21.052;2023-02-16T05:14:24;101274.53;;;0.71;100.00
65997;BME280;52765;52.258;21.052;2023-02-16T05:19:35;101265.22;;;0.63;100.00
65997;BME280;52765;52.258;21.052;2023-02-16T05:22:00;101278.25;;;0.67;100.00
65997;BME280;52765;52.258;21.052;2023-02-16T05:24:26;101272.88;;;0.69;100.00
65997;BME280;52765;52.258;21.052;2023-02-16T05:26:52;101265.00;;;0.67;100.00
65997;BME280;52765;52.258;21.052;2023-02-16T05:29:17;101271.09;;;0.69;100.00
65997;BME280;52765;52.258;21.052;2023-02-16T05:31:43;101272.88;;;0.69;100.00
65997;BME280;52765;52.258;21.052;2023-02-16T05:34:08;101270.94;;;0.72;100.00
65997;BME280;52765;52.258;21.052;2023-02-16T05:36:34;101274.38;;;0.74;100.00
65997;BME280;52765;52.258;21.052;2023-02-16T05:38:59;101265.66;;;0.72;100.00
65997;BME280;52765;52.258;21.052;2023-02-16T05:41:24;101266.28;;;0.78;100.00
65997;BME280;52765;52.258;21.052;2023-02-16T05:43:54;101263.50;;;0.81;100.00
65997;BME280;52765;52.258;21.052;2023-02-16T05:46:21;101271.25;;;0.85;100.00
65997;BME280;52765;52.258;21.052;2023-02-16T05:48:47;101257.16;;;0.83;100.00
65997;BME280;52765;52.258;21.052;2023-02-16T05:51:13;101262.34;;;0.86;100.00
65997;BME280;52765;52.258;21.052;2023-02-16T05:53:38;101272.94;;;0.86;100.00
65997;BME280;52765;52.258;21.052;2023-02-16T05:56:04;101273.84;;;0.87;100.00
65997;BME280;52765;52.258;21.052;2023-02-16T05:58:30;101254.31;;;0.88;100.00
65997;BME280;52765;52.258;21.052;2023-02-16T06:00:55;101258.47;;;0.94;100.00
65997;BME280;52765;52.258;21.052;2023-02-16T06:03:21;101254.81;;;0.96;100.00
65997;BME280;52765;52.258;21.052;2023-02-16T06:05:52;101244.84;;;1.01;100.00
65997;BME280;52765;52.258;21.052;2023-02-16T06:08:17;101246.50;;;1.04;100.00
65997;BME280;52765;52.258;21.052;2023-02-16T06:10:43;101246.34;;;1.07;100.00
65997;BME280;52765;52.258;21.052;2023-02-16T06:13:08;101260.31;;;1.10;100.00
65997;BME280;52765;52.258;21.052;2023-02-16T06:15:34;101259.53;;;1.08;100.00
65997;BME280;52765;52.258;21.052;2023-02-16T06:17:59;101261.94;;;1.13;100.00
65997;BME280;52765;52.258;21.052;2023-02-16T06:20:25;101255.03;;;1.10;100.00
65997;BME280;52765;52.258;21.052;2023-02-16T06:22:50;101249.44;;;1.17;100.00
65997;BME280;52765;52.258;21.052;2023-02-16T06:25:16;101246.78;;;1.17;100.00
65997;BME280;52765;52.258;21.052;2023-02-16T06:27:44;101245.66;;;1.21;100.00
65997;BME280;52765;52.258;21.052;2023-02-16T06:30:10;101245.38;;;1.27;100.00
65997;BME280;52765;52.258;21.052;2023-02-16T06:32:36;101254.03;;;1.31;100.00
65997;BME280;52765;52.258;21.052;2023-02-16T06:35:02;101245.22;;;1.30;100.00
65997;BME280;52765;52.258;21.052;2023-02-16T06:37:33;101251.09;;;1.37;100.00
65997;BME280;52765;52.258;21.052;2023-02-16T06:39:58;101244.84;;;1.38;100.00
65997;BME280;52765;52.258;21.052;2023-02-16T06:42:23;101241.75;;;1.47;100.00
65997;BME280;52765;52.258;21.052;2023-02-16T06:44:49;101241.53;;;1.52;100.00
65997;BME280;52765;52.258;21.052;2023-02-16T06:47:14;101248.44;;;1.54;100.00
65997;BME280;52765;52.258;21.052;2023-02-16T06:49:40;101241.81;;;1.63;100.00
65997;BME280;52765;52.258;21.052;2023-02-16T06:52:05;101239.69;;;1.70;100.00
65997;BME280;52765;52.258;21.052;2023-02-16T06:54:31;101239.41;;;1.76;100.00
65997;BME280;52765;52.258;21.052;2023-02-16T06:56:56;101242.59;;;1.82;100.00
65997;BME280;52765;52.258;21.052;2023-02-16T06:59:21;101247.47;;;1.92;100.00
65997;BME280;52765;52.258;21.052;2023-02-16T07:01:47;101254.31;;;1.96;100.00
65997;BME280;52765;52.258;21.052;2023-02-16T07:04:12;101265.31;;;1.88;100.00
65997;BME280;52765;52.258;21.052;2023-02-16T07:06:38;101244.81;;;1.92;100.00
65997;BME280;52765;52.258;21.052;2023-02-16T07:09:04;101251.50;;;1.99;100.00
65997;BME280;52765;52.258;21.052;2023-02-16T07:11:30;101244.38;;;1.99;98.82
65997;BME280;52765;52.258;21.052;2023-02-16T07:13:55;101241.97;;;1.95;99.34
65997;BME280;52765;52.258;21.052;2023-02-16T07:16:21;101226.16;;;2.09;99.20
65997;BME280;52765;52.258;21.052;2023-02-16T07:18:46;101224.13;;;2.14;98.43
65997;BME280;52765;52.258;21.052;2023-02-16T07:21:13;101233.22;;;2.26;97.69
65997;BME280;52765;52.258;21.052;2023-02-16T07:23:39;101228.06;;;2.23;97.51
65997;BME280;52765;52.258;21.052;2023-02-16T07:26:04;101237.78;;;2.24;97.09
65997;BME280;52765;52.258;21.052;2023-02-16T07:28:30;101246.94;;;2.18;97.44
65997;BME280;52765;52.258;21.052;2023-02-16T07:30:55;101243.56;;;2.15;98.59
65997;BME280;52765;52.258;21.052;2023-02-16T07:33:21;101231.63;;;2.24;97.79
65997;BME280;52765;52.258;21.052;2023-02-16T07:35:46;101233.22;;;2.26;97.58
65997;BME280;52765;52.258;21.052;2023-02-16T07:38:12;101213.84;;;2.24;97.87
65997;BME280;52765;52.258;21.052;2023-02-16T07:40:38;101225.09;;;2.29;97.05
65997;BME280;52765;52.258;21.052;2023-02-16T07:43:04;101220.63;;;2.30;97.02
65997;BME280;52765;52.258;21.052;2023-02-16T07:45:30;101218.41;;;2.22;97.38
65997;BME280;52765;52.258;21.052;2023-02-16T07:47:57;101216.06;;;2.16;97.97
65997;BME280;52765;52.258;21.052;2023-02-16T07:50:23;101216.28;;;2.11;97.86
65997;BME280;52765;52.258;21.052;2023-02-16T07:52:49;101214.69;;;2.09;98.13
65997;BME280;52765;52.258;21.052;2023-02-16T07:55:14;101203.47;;;2.19;97.38
65997;BME280;52765;52.258;21.052;2023-02-16T07:57:40;101208.69;;;2.21;97.62
65997;BME280;52765;52.258;21.052;2023-02-16T08:00:06;101203.81;;;2.29;97.64
65997;BME280;52765;52.258;21.052;2023-02-16T08:02:33;101210.00;;;2.30;97.00
65997;BME280;52765;52.258;21.052;2023-02-16T08:04:59;101210.53;;;2.36;97.29
65997;BME280;52765;52.258;21.052;2023-02-16T08:07:25;101209.34;;;2.42;96.21
65997;BME280;52765;52.258;21.052;2023-02-16T08:09:51;101206.16;;;2.51;95.41
65997;BME280;52765;52.258;21.052;2023-02-16T08:12:17;101203.88;;;2.45;96.53
65997;BME280;52765;52.258;21.052;2023-02-16T08:14:44;101199.00;;;2.53;96.15
65997;BME280;52765;52.258;21.052;2023-02-16T08:17:14;101211.25;;;2.56;95.91
65997;BME280;52765;52.258;21.052;2023-02-16T08:19:40;101187.25;;;2.73;95.80
65997;BME280;52765;52.258;21.052;2023-02-16T08:22:07;101193.75;;;2.84;94.26
65997;BME280;52765;52.258;21.052;2023-02-16T08:24:33;101192.78;;;2.85;94.06
65997;BME280;52765;52.258;21.052;2023-02-16T08:27:01;101200.69;;;3.02;93.75
65997;BME280;52765;52.258;21.052;2023-02-16T08:29:28;101211.09;;;2.91;92.87
65997;BME280;52765;52.258;21.052;2023-02-16T08:31:53;101195.44;;;2.85;92.69
65997;BME280;52765;52.258;21.052;2023-02-16T08:34:21;101206.19;;;2.99;92.92
65997;BME280;52765;52.258;21.052;2023-02-16T08:36:52;101202.59;;;3.00;92.09
65997;BME280;52765;52.258;21.052;2023-02-16T08:39:19;101210.91;;;2.94;93.07
65997;BME280;52765;52.258;21.052;2023-02-16T08:41:47;101208.50;;;3.05;91.98
65997;BME280;52765;52.258;21.052;2023-02-16T08:44:14;101211.34;;;3.18;92.73
65997;BME280;52765;52.258;21.052;2023-02-16T08:46:42;101205.56;;;3.26;92.40
65997;BME280;52765;52.258;21.052;2023-02-16T08:49:09;101209.84;;;3.28;91.12
65997;BME280;52765;52.258;21.052;2023-02-16T08:51:39;101207.88;;;3.32;90.95
65997;BME280;52765;52.258;21.052;2023-02-16T08:54:05;101201.78;;;3.30;90.20
65997;BME280;52765;52.258;21.052;2023-02-16T08:56:34;101205.03;;;3.35;89.94
65997;BME280;52765;52.258;21.052;2023-02-16T08:59:00;101202.00;;;3.41;90.00
65997;BME280;52765;52.258;21.052;2023-02-16T09:01:26;101199.91;;;3.46;88.99
65997;BME280;52765;52.258;21.052;2023-02-16T09:03:52;101191.13;;;3.30;89.63
65997;BME280;52765;52.258;21.052;2023-02-16T09:06:20;101194.91;;;3.26;90.98
65997;BME280;52765;52.258;21.052;2023-02-16T09:08:50;101194.88;;;3.42;90.48
65997;BME280;52765;52.258;21.052;2023-02-16T09:11:17;101193.56;;;3.49;89.50
65997;BME280;52765;52.258;21.052;2023-02-16T09:13:42;101191.47;;;3.54;88.34
65997;BME280;52765;52.258;21.052;2023-02-16T09:16:11;101192.44;;;3.53;89.30
65997;BME280;52765;52.258;21.052;2023-02-16T09:18:37;101189.66;;;3.55;89.65
65997;BME280;52765;52.258;21.052;2023-02-16T09:21:05;101197.53;;;3.72;88.32
65997;BME280;52765;52.258;21.052;2023-02-16T09:23:33;101201.69;;;3.76;88.13
65997;BME280;52765;52.258;21.052;2023-02-16T09:26:00;101186.19;;;3.83;87.78
65997;BME280;52765;52.258;21.052;2023-02-16T09:28:35;101195.06;;;3.83;86.87
65997;BME280;52765;52.258;21.052;2023-02-16T09:31:13;101199.63;;;3.81;86.76
65997;BME280;52765;52.258;21.052;2023-02-16T09:33:39;101192.41;;;3.83;86.59
65997;BME280;52765;52.258;21.052;2023-02-16T09:36:07;101198.50;;;3.85;86.51
65997;BME280;52765;52.258;21.052;2023-02-16T09:38:33;101193.06;;;3.87;86.54
65997;BME280;52765;52.258;21.052;2023-02-16T09:41:06;101190.72;;;3.97;87.22
65997;BME280;52765;52.258;21.052;2023-02-16T09:43:51;101190.72;;;4.25;85.92
65997;BME280;52765;52.258;21.052;2023-02-16T09:46:21;101185.47;;;4.38;84.94
65997;BME280;52765;52.258;21.052;2023-02-16T09:48:49;101197.00;;;4.39;83.74
65997;BME280;52765;52.258;21.052;2023-02-16T09:51:26;101187.81;;;4.57;84.45
65997;BME280;52765;52.258;21.052;2023-02-16T09:54:56;101190.38;;;4.73;83.42
65997;BME280;52765;52.258;21.052;2023-02-16T10:08:10;101180.66;;;4.99;80.71
65997;BME280;52765;52.258;21.052;2023-02-16T10:13:25;101179.91;;;4.97;80.79
65997;BME280;52765;52.258;21.052;2023-02-16T10:15:53;101173.56;;;4.86;82.97
65997;BME280;52765;52.258;21.052;2023-02-16T10:18:32;101176.50;;;4.95;81.54
65997;BME280;52765;52.258;21.052;2023-02-16T10:21:03;101180.88;;;4.96;81.18
65997;BME280;52765;52.258;21.052;2023-02-16T10:23:45;101167.91;;;5.05;81.52
65997;BME280;52765;52.258;21.052;2023-02-16T10:26:21;101173.47;;;5.14;80.75
65997;BME280;52765;52.258;21.052;2023-02-16T10:28:54;101169.34;;;5.36;80.10
65997;BME280;52765;52.258;21.052;2023-02-16T10:42:02;101164.34;;;5.44;79.46
65997;BME280;52765;52.258;21.052;2023-02-16T10:44:36;101160.78;;;5.31;79.52
65997;BME280;52765;52.258;21.052;2023-02-16T10:47:08;101155.91;;;5.37;80.55
65997;BME280;52765;52.258;21.052;2023-02-16T10:49:38;101146.97;;;5.51;80.03
65997;BME280;52765;52.258;21.052;2023-02-16T10:52:06;101137.03;;;5.66;79.40
65997;BME280;52765;52.258;21.052;2023-02-16T10:54:32;101133.81;;;5.74;78.01
65997;BME280;52765;52.258;21.052;2023-02-16T10:57:04;101123.53;;;5.81;76.59
65997;BME280;52765;52.258;21.052;2023-02-16T11:02:00;101121.63;;;5.83;77.63
65997;BME280;52765;52.258;21.052;2023-02-16T11:04:40;101125.78;;;5.87;78.08
65997;BME280;52765;52.258;21.052;2023-02-16T11:07:12;101127.38;;;5.89;77.90
65997;BME280;52765;52.258;21.052;2023-02-16T11:09:42;101123.88;;;5.89;77.94
65997;BME280;52765;52.258;21.052;2023-02-16T11:12:22;101121.72;;;5.94;77.60
65997;BME280;52765;52.258;21.052;2023-02-16T11:15:01;101119.72;;;5.98;78.68
65997;BME280;52765;52.258;21.052;2023-02-16T11:17:30;101115.09;;;6.13;77.99
65997;BME280;52765;52.258;21.052;2023-02-16T11:20:02;101119.06;;;6.20;77.23
65997;BME280;52765;52.258;21.052;2023-02-16T11:22:36;101119.91;;;6.20;77.51
65997;BME280;52765;52.258;21.052;2023-02-16T11:27:56;101118.47;;;6.40;76.88
65997;BME280;52765;52.258;21.052;2023-02-16T11:32:58;101105.63;;;6.33;77.11
65997;BME280;52765;52.258;21.052;2023-02-16T11:35:25;101115.69;;;6.42;77.12
65997;BME280;52765;52.258;21.052;2023-02-16T11:37:51;101111.47;;;6.51;76.83
65997;BME280;52765;52.258;21.052;2023-02-16T11:40:23;101117.53;;;6.65;76.74
65997;BME280;52765;52.258;21.052;2023-02-16T11:42:55;101118.38;;;6.66;76.92
65997;BME280;52765;52.258;21.052;2023-02-16T11:48:09;101108.25;;;6.58;77.17
65997;BME280;52765;52.258;21.052;2023-02-16T11:50:39;101113.94;;;6.54;77.94
65997;BME280;52765;52.258;21.052;2023-02-16T11:55:36;101105.78;;;6.79;77.28
65997;BME280;52765;52.258;21.052;2023-02-16T11:58:20;101090.28;;;6.96;76.66
65997;BME280;52765;52.258;21.052;2023-02-16T12:01:17;101089.03;;;7.13;75.51
65997;BME280;52765;52.258;21.052;2023-02-16T12:10:03;101093.56;;;7.23;75.50
65997;BME280;52765;52.258;21.052;2023-02-16T12:12:10;101099.94;;;7.34;75.57
65997;BME280;52765;52.258;21.052;2023-02-16T12:21:17;101099.13;;;7.09;76.97
65997;BME280;52765;52.258;21.052;2023-02-16T12:28:44;101080.84;;;7.14;78.22
65997;BME280;52765;52.258;21.052;2023-02-16T12:31:33;101082.50;;;7.28;77.70
65997;BME280;52765;52.258;21.052;2023-02-16T12:44:51;101081.22;;;7.56;78.20
65997;BME280;52765;52.258;21.052;2023-02-16T12:47:51;101076.38;;;7.73;76.58
65997;BME280;52765;52.258;21.052;2023-02-16T12:50:21;101073.19;;;7.90;75.63
65997;BME280;52765;52.258;21.052;2023-02-16T12:55:30;101072.59;;;7.75;76.08
65997;BME280;52765;52.258;21.052;2023-02-16T13:00:42;101073.44;;;7.65;76.39
65997;BME280;52765;52.258;21.052;2023-02-16T13:05:48;101056.72;;;7.50;78.17
65997;BME280;52765;52.258;21.052;2023-02-16T13:08:47;101065.97;;;7.57;78.64
65997;BME280;52765;52.258;21.052;2023-02-16T13:13:45;101063.22;;;7.81;77.47
65997;BME280;52765;52.258;21.052;2023-02-16T13:16:30;101061.13;;;7.85;76.59
65997;BME280;52765;52.258;21.052;2023-02-16T13:19:02;101059.78;;;7.68;77.72
65997;BME280;52765;52.258;21.052;2023-02-16T13:30:25;101057.53;;;7.39;80.99
65997;BME280;52765;52.258;21.052;2023-02-16T13:32:47;101050.25;;;7.52;79.80
65997;BME280;52765;52.258;21.052;2023-02-16T13:48:49;101047.72;;;7.85;78.56
65997;BME280;52765;52.258;21.052;2023-02-16T13:51:19;101040.28;;;8.00;78.01
65997;BME280;52765;52.258;21.052;2023-02-16T13:53:56;101041.94;;;8.23;77.38
65997;BME280;52765;52.258;21.052;2023-02-16T14:01:42;101039.03;;;8.15;77.60
65997;BME280;52765;52.258;21.052;2023-02-16T14:20:05;101044.38;;;7.36;83.53
65997;BME280;52765;52.258;21.052;2023-02-16T14:22:50;101046.78;;;7.28;84.15
65997;BME280;52765;52.258;21.052;2023-02-16T14:27:50;101044.91;;;7.06;86.03
65997;BME280;52765;52.258;21.052;2023-02-16T14:30:29;101047.66;;;6.93;87.57
65997;BME280;52765;52.258;21.052;2023-02-16T14:35:45;101044.91;;;7.06;87.05
65997;BME280;52765;52.258;21.052;2023-02-16T14:38:25;101045.78;;;7.06;87.23
65997;BME280;52765;52.258;21.052;2023-02-16T14:40:56;101047.53;;;6.94;88.04
65997;BME280;52765;52.258;21.052;2023-02-16T14:43:37;101042.31;;;6.93;88.28
65997;BME280;52765;52.258;21.052;2023-02-16T14:52:08;101051.56;;;6.89;88.73
65997;BME280;52765;52.258;21.052;2023-02-16T14:57:21;101041.81;;;6.88;88.67
65997;BME280;52765;52.258;21.052;2023-02-16T15:03:03;101042.16;;;6.83;88.44
65997;BME280;52765;52.258;21.052;2023-02-16T15:05:35;101040.41;;;6.71;89.73
65997;BME280;52765;52.258;21.052;2023-02-16T15:08:12;101041.13;;;6.73;90.10
65997;BME280;52765;52.258;21.052;2023-02-16T15:10:43;101035.53;;;6.64;90.14
65997;BME280;52765;52.258;21.052;2023-02-16T15:13:23;101036.47;;;6.63;90.35
65997;BME280;52765;52.258;21.052;2023-02-16T15:15:52;101037.81;;;6.58;90.51
65997;BME280;52765;52.258;21.052;2023-02-16T15:18:28;101035.63;;;6.63;90.18
65997;BME280;52765;52.258;21.052;2023-02-16T15:20:56;101044.72;;;6.60;90.67
65997;BME280;52765;52.258;21.052;2023-02-16T15:23:24;101037.53;;;6.50;90.59
65997;BME280;52765;52.258;21.052;2023-02-16T15:25:59;101042.69;;;6.40;91.98
65997;BME280;52765;52.258;21.052;2023-02-16T15:28:31;101046.22;;;6.40;92.09
65997;BME280;52765;52.258;21.052;2023-02-16T15:31:00;101046.66;;;6.34;92.41
65997;BME280;52765;52.258;21.052;2023-02-16T15:33:41;101030.72;;;6.33;92.23
65997;BME280;52765;52.258;21.052;2023-02-16T15:36:12;101049.22;;;6.36;91.94
65997;BME280;52765;52.258;21.052;2023-02-16T15:38:59;101042.28;;;6.33;92.72
65997;BME280;52765;52.258;21.052;2023-02-16T15:41:27;101039.53;;;6.22;93.45